sensor_id;sensor_type;location;lat;lon;timestamp;temperature;humidity
7958;DHT22;4024;52.172;5.378;2024-03-08T00:01:35;6.20;99.90
7958;DHT22;4024;52.172;5.378;2024-03-08T00:04:01;6.00;99.90
7958;DHT22;4024;52.172;5.378;2024-03-08T00:06:26;6.00;99.90
7958;DHT22;4024;52.172;5.378;2024-03-08T00:08:52;6.00;99.90
7958;DHT22;4024;52.172;5.378;2024-03-08T00:11:18;6.00;99.90
7958;DHT22;4024;52.172;5.378;2024-03-08T00:13:43;6.00;99.90
7958;DHT22;4024;52.172;5.378;2024-03-08T00:16:10;6.00;99.90
7958;DHT22;4024;52.172;5.378;2024-03-08T00:18:36;5.90;99.90
7958;DHT22;4024;52.172;5.378;2024-03-08T00:21:02;5.90;99.90
7958;DHT22;4024;52.172;5.378;2024-03-08T00:23:27;5.90;99.90
7958;DHT22;4024;52.172;5.378;2024-03-08T00:25:53;5.90;99.90
7958;DHT22;4024;52.172;5.378;2024-03-08T00:28:21;5.90;99.90
7958;DHT22;4024;52.172;5.378;2024-03-08T00:30:46;5.90;99.90
7958;DHT22;4024;52.172;5.378;2024-03-08T00:33:12;5.80;99.90
7958;DHT22;4024;52.172;5.378;2024-03-08T00:35:38;5.80;99.90
7958;DHT22;4024;52.172;5.378;2024-03-08T00:38:03;5.80;99.90
7958;DHT22;4024;52.172;5.378;2024-03-08T00:40:29;5.80;99.90
7958;DHT22;4024;52.172;5.378;2024-03-08T00:42:55;6.00;99.90
7958;DHT22;4024;52.172;5.378;2024-03-08T00:45:20;5.70;99.90
7958;DHT22;4024;52.172;5.378;2024-03-08T00:47:47;5.70;99.90
7958;DHT22;4024;52.172;5.378;2024-03-08T00:50:13;5.90;99.90
7958;DHT22;4024;52.172;5.378;2024-03-08T00:52:39;5.70;99.90
7958;DHT22;4024;52.172;5.378;2024-03-08T00:55:04;5.70;99.90
7958;DHT22;4024;52.172;5.378;2024-03-08T00:57:30;5.70;99.90
7958;DHT22;4024;52.172;5.378;2024-03-08T00:59:56;5.70;99.90
7958;DHT22;4024;52.172;5.378;2024-03-08T01:02:22;5.50;99.90
7958;DHT22;4024;52.172;5.378;2024-03-08T01:04:48;5.60;99.90
7958;DHT22;4024;52.172;5.378;2024-03-08T01:07:14;5.60;99.90
7958;DHT22;4024;52.172;5.378;2024-03-08T01:09:40;5.60;99.90
7958;DHT22;4024;52.172;5.378;2024-03-08T01:12:05;5.50;99.90
7958;DHT22;4024;52.172;5.378;2024-03-08T01:14:33;5.60;99.90
7958;DHT22;4024;52.172;5.378;2024-03-08T01:16:59;5.50;99.90
7958;DHT22;4024;52.172;5.378;2024-03-08T01:19:24;5.50;99.90
7958;DHT22;4024;52.172;5.378;2024-03-08T01:21:50;5.50;99.90
7958;DHT22;4024;52.172;5.378;2024-03-08T01:24:16;5.40;99.90
7958;DHT22;4024;52.172;5.378;2024-03-08T01:26:42;5.40;99.90
7958;DHT22;4024;52.172;5.378;2024-03-08T01:29:08;5.40;99.90
7958;DHT22;4024;52.172;5.378;2024-03-08T01:31:33;5.40;99.90
7958;DHT22;4024;52.172;5.378;2024-03-08T01:33:59;5.50;99.90
7958;DHT22;4024;52.172;5.378;2024-03-08T01:36:25;5.30;99.90
7958;DHT22;4024;52.172;5.378;2024-03-08T01:38:52;5.30;99.90
7958;DHT22;4024;52.172;5.378;2024-03-08T01:41:17;5.30;99.90
7958;DHT22;4024;52.172;5.378;2024-03-08T01:43:44;5.30;99.90
7958;DHT22;4024;52.172;5.378;2024-03-08T01:46:10;5.20;99.90
7958;DHT22;4024;52.172;5.378;2024-03-08T01:48:38;5.20;99.90
7958;DHT22;4024;52.172;5.378;2024-03-08T01:51:04;5.30;99.90
7958;DHT22;4024;52.172;5.378;2024-03-08T01:53:31;5.20;99.90
7958;DHT22;4024;52.172;5.378;2024-03-08T01:55:59;5.10;99.90
7958;DHT22;4024;52.172;5.378;2024-03-08T01:58:29;5.20;99.90
7958;DHT22;4024;52.172;5.378;2024-03-08T02:00:57;5.10;99.90
7958;DHT22;4024;52.172;5.378;2024-03-08T02:03:25;5.10;99.90
7958;DHT22;4024;52.172;5.378;2024-03-08T02:05:51;5.10;99.90
7958;DHT22;4024;52.172;5.378;2024-03-08T02:08:20;5.10;99.90
7958;DHT22;4024;52.172;5.378;2024-03-08T02:10:48;5.00;99.90
7958;DHT22;4024;52.172;5.378;2024-03-08T02:13:15;5.00;99.90
7958;DHT22;4024;52.172;5.378;2024-03-08T02:15:57;5.00;99.90
7958;DHT22;4024;52.172;5.378;2024-03-08T02:18:30;5.00;99.90
7958;DHT22;4024;52.172;5.378;2024-03-08T02:20:56;4.90;99.90
7958;DHT22;4024;52.172;5.378;2024-03-08T02:23:22;4.90;99.90
7958;DHT22;4024;52.172;5.378;2024-03-08T02:25:49;4.90;99.90
7958;DHT22;4024;52.172;5.378;2024-03-08T02:28:16;4.90;99.90
7958;DHT22;4024;52.172;5.378;2024-03-08T02:30:44;4.80;99.90
7958;DHT22;4024;52.172;5.378;2024-03-08T02:33:13;4.80;99.90
7958;DHT22;4024;52.172;5.378;2024-03-08T02:35:42;4.80;99.90
7958;DHT22;4024;52.172;5.378;2024-03-08T02:38:11;4.80;99.90
7958;DHT22;4024;52.172;5.378;2024-03-08T02:40:37;4.80;99.90
7958;DHT22;4024;52.172;5.378;2024-03-08T02:43:02;4.80;99.90
7958;DHT22;4024;52.172;5.378;2024-03-08T02:45:30;4.80;99.90
7958;DHT22;4024;52.172;5.378;2024-03-08T02:47:56;4.80;99.90
7958;DHT22;4024;52.172;5.378;2024-03-08T02:50:22;4.70;99.90
7958;DHT22;4024;52.172;5.378;2024-03-08T02:52:48;4.70;99.90
7958;DHT22;4024;52.172;5.378;2024-03-08T02:55:14;4.70;99.90
7958;DHT22;4024;52.172;5.378;2024-03-08T02:57:43;4.70;99.90
7958;DHT22;4024;52.172;5.378;2024-03-08T03:00:10;4.60;99.90
7958;DHT22;4024;52.172;5.378;2024-03-08T03:02:36;4.60;99.90
7958;DHT22;4024;52.172;5.378;2024-03-08T03:05:03;4.60;99.90
7958;DHT22;4024;52.172;5.378;2024-03-08T03:07:32;4.60;99.90
7958;DHT22;4024;52.172;5.378;2024-03-08T03:09:59;4.60;99.90
7958;DHT22;4024;52.172;5.378;2024-03-08T03:12:29;4.50;99.90
7958;DHT22;4024;52.172;5.378;2024-03-08T03:14:54;4.50;99.90
7958;DHT22;4024;52.172;5.378;2024-03-08T03:17:24;4.50;99.90
7958;DHT22;4024;52.172;5.378;2024-03-08T03:19:51;4.50;99.90
7958;DHT22;4024;52.172;5.378;2024-03-08T03:22:21;4.50;99.90
7958;DHT22;4024;52.172;5.378;2024-03-08T03:24:47;4.50;99.90
7958;DHT22;4024;52.172;5.378;2024-03-08T03:27:13;4.40;99.90
7958;DHT22;4024;52.172;5.378;2024-03-08T03:29:41;4.50;99.90
7958;DHT22;4024;52.172;5.378;2024-03-08T03:32:15;4.40;99.90
7958;DHT22;4024;52.172;5.378;2024-03-08T03:34:41;4.40;99.90
7958;DHT22;4024;52.172;5.378;2024-03-08T03:37:09;4.40;99.90
7958;DHT22;4024;52.172;5.378;2024-03-08T03:39:38;4.40;99.90
7958;DHT22;4024;52.172;5.378;2024-03-08T03:42:19;4.30;99.90
7958;DHT22;4024;52.172;5.378;2024-03-08T03:44:48;4.30;99.90
7958;DHT22;4024;52.172;5.378;2024-03-08T03:47:14;4.30;99.90
7958;DHT22;4024;52.172;5.378;2024-03-08T03:49:42;4.30;99.90
7958;DHT22;4024;52.172;5.378;2024-03-08T03:52:08;4.30;99.90
7958;DHT22;4024;52.172;5.378;2024-03-08T03:54:34;4.30;99.90
7958;DHT22;4024;52.172;5.378;2024-03-08T03:57:00;4.30;99.90
7958;DHT22;4024;52.172;5.378;2024-03-08T03:59:26;4.30;99.90
7958;DHT22;4024;52.172;5.378;2024-03-08T04:01:53;4.30;99.90
7958;DHT22;4024;52.172;5.378;2024-03-08T04:04:18;4.30;99.90
7958;DHT22;4024;52.172;5.378;2024-03-08T04:06:44;4.30;99.90
7958;DHT22;4024;52.172;5.378;2024-03-08T04:09:10;4.30;99.90
7958;DHT22;4024;52.172;5.378;2024-03-08T04:11:36;4.30;99.90
7958;DHT22;4024;52.172;5.378;2024-03-08T04:14:02;4.20;99.90
7958;DHT22;4024;52.172;5.378;2024-03-08T04:16:27;4.20;99.90
7958;DHT22;4024;52.172;5.378;2024-03-08T04:18:53;4.20;99.90
7958;DHT22;4024;52.172;5.378;2024-03-08T04:21:19;4.20;99.90
7958;DHT22;4024;52.172;5.378;2024-03-08T04:23:45;4.20;99.90
7958;DHT22;4024;52.172;5.378;2024-03-08T04:26:11;4.20;99.90
7958;DHT22;4024;52.172;5.378;2024-03-08T04:28:37;4.20;99.90
7958;DHT22;4024;52.172;5.378;2024-03-08T04:31:03;4.20;99.90
7958;DHT22;4024;52.172;5.378;2024-03-08T04:33:29;4.20;99.90
7958;DHT22;4024;52.172;5.378;2024-03-08T04:35:55;4.20;99.90
7958;DHT22;4024;52.172;5.378;2024-03-08T04:38:21;4.20;99.90
7958;DHT22;4024;52.172;5.378;2024-03-08T04:40:47;4.20;99.90
7958;DHT22;4024;52.172;5.378;2024-03-08T04:43:12;4.20;99.90
7958;DHT22;4024;52.172;5.378;2024-03-08T04:45:39;4.10;99.90
7958;DHT22;4024;52.172;5.378;2024-03-08T04:48:06;4.10;99.90
7958;DHT22;4024;52.172;5.378;2024-03-08T04:50:33;4.10;99.90
7958;DHT22;4024;52.172;5.378;2024-03-08T04:52:59;4.10;99.90
7958;DHT22;4024;52.172;5.378;2024-03-08T04:55:25;4.10;99.90
7958;DHT22;4024;52.172;5.378;2024-03-08T04:57:51;4.10;99.90
7958;DHT22;4024;52.172;5.378;2024-03-08T05:00:16;4.00;99.90
7958;DHT22;4024;52.172;5.378;2024-03-08T05:02:42;4.10;99.90
7958;DHT22;4024;52.172;5.378;2024-03-08T05:05:08;4.10;99.90
7958;DHT22;4024;52.172;5.378;2024-03-08T05:07:41;4.00;99.90
7958;DHT22;4024;52.172;5.378;2024-03-08T05:10:07;4.00;99.90
7958;DHT22;4024;52.172;5.378;2024-03-08T05:12:35;4.10;99.90
7958;DHT22;4024;52.172;5.378;2024-03-08T05:15:01;4.10;99.90
7958;DHT22;4024;52.172;5.378;2024-03-08T05:17:26;4.00;99.90
7958;DHT22;4024;52.172;5.378;2024-03-08T05:19:52;4.00;99.90
7958;DHT22;4024;52.172;5.378;2024-03-08T05:22:17;4.00;99.90
7958;DHT22;4024;52.172;5.378;2024-03-08T05:24:44;4.00;99.90
7958;DHT22;4024;52.172;5.378;2024-03-08T05:27:10;4.00;99.90
7958;DHT22;4024;52.172;5.378;2024-03-08T05:29:36;4.00;99.90
7958;DHT22;4024;52.172;5.378;2024-03-08T05:32:03;4.00;99.90
7958;DHT22;4024;52.172;5.378;2024-03-08T05:34:29;4.00;99.90
7958;DHT22;4024;52.172;5.378;2024-03-08T05:36:55;3.90;99.90
7958;DHT22;4024;52.172;5.378;2024-03-08T05:39:21;3.90;99.90
7958;DHT22;4024;52.172;5.378;2024-03-08T05:41:46;4.00;99.90
7958;DHT22;4024;52.172;5.378;2024-03-08T05:44:13;3.90;99.90
7958;DHT22;4024;52.172;5.378;2024-03-08T05:46:39;3.90;99.90
7958;DHT22;4024;52.172;5.378;2024-03-08T05:49:06;3.90;99.90
7958;DHT22;4024;52.172;5.378;2024-03-08T05:51:36;3.90;99.90
7958;DHT22;4024;52.172;5.378;2024-03-08T05:54:03;3.90;99.90
7958;DHT22;4024;52.172;5.378;2024-03-08T05:56:31;3.90;99.90
7958;DHT22;4024;52.172;5.378;2024-03-08T05:58:56;3.90;99.90
7958;DHT22;4024;52.172;5.378;2024-03-08T06:01:26;3.90;99.90
7958;DHT22;4024;52.172;5.378;2024-03-08T06:03:55;3.90;99.90
7958;DHT22;4024;52.172;5.378;2024-03-08T06:06:25;3.90;99.90
7958;DHT22;4024;52.172;5.378;2024-03-08T06:08:51;3.90;99.90
7958;DHT22;4024;52.172;5.378;2024-03-08T06:11:18;3.90;99.90
7958;DHT22;4024;52.172;5.378;2024-03-08T06:13:45;3.80;99.90
7958;DHT22;4024;52.172;5.378;2024-03-08T06:16:10;3.80;99.90
7958;DHT22;4024;52.172;5.378;2024-03-08T06:18:37;3.80;99.90
7958;DHT22;4024;52.172;5.378;2024-03-08T06:21:06;3.80;99.90
7958;DHT22;4024;52.172;5.378;2024-03-08T06:23:35;3.80;99.90
7958;DHT22;4024;52.172;5.378;2024-03-08T06:26:04;3.80;99.90
7958;DHT22;4024;52.172;5.378;2024-03-08T06:28:30;3.80;99.90
7958;DHT22;4024;52.172;5.378;2024-03-08T06:31:01;3.70;99.90
7958;DHT22;4024;52.172;5.378;2024-03-08T06:33:27;3.80;99.90
7958;DHT22;4024;52.172;5.378;2024-03-08T06:35:53;3.80;99.90
7958;DHT22;4024;52.172;5.378;2024-03-08T06:38:23;3.80;99.90
7958;DHT22;4024;52.172;5.378;2024-03-08T06:40:51;3.80;99.90
7958;DHT22;4024;52.172;5.378;2024-03-08T06:43:17;3.80;99.90
7958;DHT22;4024;52.172;5.378;2024-03-08T06:45:44;3.80;99.90
7958;DHT22;4024;52.172;5.378;2024-03-08T06:48:19;3.90;99.90
7958;DHT22;4024;52.172;5.378;2024-03-08T06:50:46;3.90;99.90
7958;DHT22;4024;52.172;5.378;2024-03-08T06:53:12;4.00;99.90
7958;DHT22;4024;52.172;5.378;2024-03-08T06:55:39;3.90;99.90
7958;DHT22;4024;52.172;5.378;2024-03-08T06:58:05;3.90;99.90
7958;DHT22;4024;52.172;5.378;2024-03-08T07:00:32;4.00;99.90
7958;DHT22;4024;52.172;5.378;2024-03-08T07:02:58;4.00;99.90
7958;DHT22;4024;52.172;5.378;2024-03-08T07:05:27;4.00;99.90
7958;DHT22;4024;52.172;5.378;2024-03-08T07:07:53;4.00;99.90
7958;DHT22;4024;52.172;5.378;2024-03-08T07:10:23;4.00;99.90
7958;DHT22;4024;52.172;5.378;2024-03-08T07:12:53;4.00;99.90
7958;DHT22;4024;52.172;5.378;2024-03-08T07:15:19;4.00;99.90
7958;DHT22;4024;52.172;5.378;2024-03-08T07:17:48;4.10;99.90
7958;DHT22;4024;52.172;5.378;2024-03-08T07:20:15;4.10;99.90
7958;DHT22;4024;52.172;5.378;2024-03-08T07:22:47;4.10;99.90
7958;DHT22;4024;52.172;5.378;2024-03-08T07:25:13;4.10;99.90
7958;DHT22;4024;52.172;5.378;2024-03-08T07:27:49;4.10;99.90
7958;DHT22;4024;52.172;5.378;2024-03-08T07:30:17;4.20;99.90
7958;DHT22;4024;52.172;5.378;2024-03-08T07:33:01;4.20;99.90
7958;DHT22;4024;52.172;5.378;2024-03-08T07:35:29;4.20;99.90
7958;DHT22;4024;52.172;5.378;2024-03-08T07:37:56;4.30;99.90
7958;DHT22;4024;52.172;5.378;2024-03-08T07:40:22;4.30;99.90
7958;DHT22;4024;52.172;5.378;2024-03-08T07:42:51;4.30;99.90
7958;DHT22;4024;52.172;5.378;2024-03-08T07:45:17;4.30;99.90
7958;DHT22;4024;52.172;5.378;2024-03-08T07:47:43;4.40;99.90
7958;DHT22;4024;52.172;5.378;2024-03-08T07:50:09;4.40;99.90
7958;DHT22;4024;52.172;5.378;2024-03-08T07:52:35;4.40;99.90
7958;DHT22;4024;52.172;5.378;2024-03-08T07:55:02;4.50;99.90
7958;DHT22;4024;52.172;5.378;2024-03-08T07:57:29;4.50;99.90
7958;DHT22;4024;52.172;5.378;2024-03-08T07:59:55;4.60;99.90
7958;DHT22;4024;52.172;5.378;2024-03-08T08:02:21;4.60;99.90
7958;DHT22;4024;52.172;5.378;2024-03-08T08:04:46;4.60;99.90
7958;DHT22;4024;52.172;5.378;2024-03-08T08:07:12;4.70;99.90
7958;DHT22;4024;52.172;5.378;2024-03-08T08:09:38;4.70;99.90
7958;DHT22;4024;52.172;5.378;2024-03-08T08:12:04;4.80;99.90
7958;DHT22;4024;52.172;5.378;2024-03-08T08:14:30;4.80;99.90
7958;DHT22;4024;52.172;5.378;2024-03-08T08:16:56;4.90;99.90
7958;DHT22;4024;52.172;5.378;2024-03-08T08:19:23;4.90;99.90
7958;DHT22;4024;52.172;5.378;2024-03-08T08:21:48;5.00;99.90
7958;DHT22;4024;52.172;5.378;2024-03-08T08:24:14;5.00;99.90
7958;DHT22;4024;52.172;5.378;2024-03-08T08:26:40;5.00;99.90
7958;DHT22;4024;52.172;5.378;2024-03-08T08:29:06;5.00;99.90
7958;DHT22;4024;52.172;5.378;2024-03-08T08:31:32;5.10;99.90
7958;DHT22;4024;52.172;5.378;2024-03-08T08:33:58;5.20;99.90
7958;DHT22;4024;52.172;5.378;2024-03-08T08:36:25;5.20;99.90
7958;DHT22;4024;52.172;5.378;2024-03-08T08:38:51;5.20;99.90
7958;DHT22;4024;52.172;5.378;2024-03-08T08:41:19;5.30;99.90
7958;DHT22;4024;52.172;5.378;2024-03-08T08:43:47;5.30;99.90
7958;DHT22;4024;52.172;5.378;2024-03-08T08:46:17;5.30;99.90
7958;DHT22;4024;52.172;5.378;2024-03-08T08:48:42;5.40;99.90
7958;DHT22;4024;52.172;5.378;2024-03-08T08:51:10;5.40;99.90
7958;DHT22;4024;52.172;5.378;2024-03-08T08:53:42;5.50;99.90
7958;DHT22;4024;52.172;5.378;2024-03-08T08:56:15;5.60;99.90
7958;DHT22;4024;52.172;5.378;2024-03-08T08:58:41;5.60;99.90
7958;DHT22;4024;52.172;5.378;2024-03-08T09:01:08;5.70;99.90
7958;DHT22;4024;52.172;5.378;2024-03-08T09:03:36;5.70;99.90
7958;DHT22;4024;52.172;5.378;2024-03-08T09:06:12;5.70;99.90
7958;DHT22;4024;52.172;5.378;2024-03-08T09:08:39;5.80;99.90
7958;DHT22;4024;52.172;5.378;2024-03-08T09:11:04;6.00;99.90
7958;DHT22;4024;52.172;5.378;2024-03-08T09:13:31;5.90;99.90
7958;DHT22;4024;52.172;5.378;2024-03-08T09:15:56;6.00;99.90
7958;DHT22;4024;52.172;5.378;2024-03-08T09:18:22;6.00;99.90
7958;DHT22;4024;52.172;5.378;2024-03-08T09:20:49;6.10;99.90
7958;DHT22;4024;52.172;5.378;2024-03-08T09:23:15;6.10;99.90
7958;DHT22;4024;52.172;5.378;2024-03-08T09:25:42;6.20;99.90
7958;DHT22;4024;52.172;5.378;2024-03-08T09:28:09;6.20;99.90
7958;DHT22;4024;52.172;5.378;2024-03-08T09:30:37;6.30;99.90
7958;DHT22;4024;52.172;5.378;2024-03-08T09:33:04;6.30;99.90
7958;DHT22;4024;52.172;5.378;2024-03-08T09:35:30;6.40;99.90
7958;DHT22;4024;52.172;5.378;2024-03-08T09:37:55;6.40;99.90
7958;DHT22;4024;52.172;5.378;2024-03-08T09:40:21;6.50;99.90
7958;DHT22;4024;52.172;5.378;2024-03-08T09:42:49;6.60;99.90
7958;DHT22;4024;52.172;5.378;2024-03-08T09:45:17;6.60;99.90
7958;DHT22;4024;52.172;5.378;2024-03-08T09:47:43;6.70;99.90
7958;DHT22;4024;52.172;5.378;2024-03-08T09:50:10;6.70;99.90
7958;DHT22;4024;52.172;5.378;2024-03-08T09:52:38;6.80;99.90
7958;DHT22;4024;52.172;5.378;2024-03-08T09:55:06;6.80;99.90
7958;DHT22;4024;52.172;5.378;2024-03-08T09:57:33;6.90;99.90
7958;DHT22;4024;52.172;5.378;2024-03-08T10:00:00;7.00;99.90
7958;DHT22;4024;52.172;5.378;2024-03-08T10:02:26;7.00;99.90
7958;DHT22;4024;52.172;5.378;2024-03-08T10:04:52;7.10;99.90
7958;DHT22;4024;52.172;5.378;2024-03-08T10:07:18;7.10;99.90
7958;DHT22;4024;52.172;5.378;2024-03-08T10:09:44;7.20;99.90
7958;DHT22;4024;52.172;5.378;2024-03-08T10:12:16;7.20;99.90
7958;DHT22;4024;52.172;5.378;2024-03-08T10:14:43;7.30;99.90
7958;DHT22;4024;52.172;5.378;2024-03-08T10:17:09;7.40;99.90
7958;DHT22;4024;52.172;5.378;2024-03-08T10:19:34;7.40;99.90
7958;DHT22;4024;52.172;5.378;2024-03-08T10:22:00;7.50;99.90
7958;DHT22;4024;52.172;5.378;2024-03-08T10:24:26;7.60;99.90
7958;DHT22;4024;52.172;5.378;2024-03-08T10:27:04;7.60;99.90
7958;DHT22;4024;52.172;5.378;2024-03-08T10:29:31;7.70;99.90
7958;DHT22;4024;52.172;5.378;2024-03-08T10:31:57;7.70;99.90
7958;DHT22;4024;52.172;5.378;2024-03-08T10:34:23;7.80;99.90
7958;DHT22;4024;52.172;5.378;2024-03-08T10:36:52;7.80;99.90
7958;DHT22;4024;52.172;5.378;2024-03-08T10:39:21;7.90;99.90
7958;DHT22;4024;52.172;5.378;2024-03-08T10:41:53;7.90;99.90
7958;DHT22;4024;52.172;5.378;2024-03-08T10:49:54;8.20;99.90
7958;DHT22;4024;52.172;5.378;2024-03-08T10:52:21;8.20;99.90
7958;DHT22;4024;52.172;5.378;2024-03-08T10:54:48;8.30;99.90
7958;DHT22;4024;52.172;5.378;2024-03-08T10:57:18;8.30;99.90
7958;DHT22;4024;52.172;5.378;2024-03-08T10:59:46;8.30;99.90
7958;DHT22;4024;52.172;5.378;2024-03-08T11:02:12;8.40;99.90
7958;DHT22;4024;52.172;5.378;2024-03-08T11:04:38;8.40;99.90
7958;DHT22;4024;52.172;5.378;2024-03-08T11:07:04;8.50;99.90
7958;DHT22;4024;52.172;5.378;2024-03-08T11:09:35;8.60;99.90
7958;DHT22;4024;52.172;5.378;2024-03-08T11:14:47;8.70;99.90
7958;DHT22;4024;52.172;5.378;2024-03-08T11:17:39;8.90;99.90
7958;DHT22;4024;52.172;5.378;2024-03-08T11:20:14;8.80;99.90
7958;DHT22;4024;52.172;5.378;2024-03-08T11:22:54;8.90;99.90
7958;DHT22;4024;52.172;5.378;2024-03-08T11:25:31;8.90;99.90
7958;DHT22;4024;52.172;5.378;2024-03-08T11:28:27;9.00;99.90
7958;DHT22;4024;52.172;5.378;2024-03-08T11:33:28;9.10;99.90
7958;DHT22;4024;52.172;5.378;2024-03-08T11:36:10;9.20;99.90
7958;DHT22;4024;52.172;5.378;2024-03-08T11:38:45;9.30;99.90
7958;DHT22;4024;52.172;5.378;2024-03-08T11:41:23;9.30;99.90
7958;DHT22;4024;52.172;5.378;2024-03-08T11:44:03;9.40;99.90
7958;DHT22;4024;52.172;5.378;2024-03-08T11:46:31;9.40;99.90
7958;DHT22;4024;52.172;5.378;2024-03-08T11:48:56;9.50;99.90
7958;DHT22;4024;52.172;5.378;2024-03-08T11:51:22;9.50;99.90
7958;DHT22;4024;52.172;5.378;2024-03-08T11:53:49;9.70;99.90
7958;DHT22;4024;52.172;5.378;2024-03-08T11:56:16;9.70;99.90
7958;DHT22;4024;52.172;5.378;2024-03-08T11:58:42;9.80;99.90
7958;DHT22;4024;52.172;5.378;2024-03-08T12:01:17;9.80;99.90
7958;DHT22;4024;52.172;5.378;2024-03-08T12:03:43;9.90;99.90
7958;DHT22;4024;52.172;5.378;2024-03-08T12:06:10;10.00;99.90
7958;DHT22;4024;52.172;5.378;2024-03-08T12:08:36;10.00;99.90
7958;DHT22;4024;52.172;5.378;2024-03-08T12:11:04;10.20;99.90
7958;DHT22;4024;52.172;5.378;2024-03-08T12:13:34;10.10;99.90
7958;DHT22;4024;52.172;5.378;2024-03-08T12:16:03;10.20;99.90
7958;DHT22;4024;52.172;5.378;2024-03-08T12:18:33;10.30;99.90
7958;DHT22;4024;52.172;5.378;2024-03-08T12:21:10;10.40;99.90
7958;DHT22;4024;52.172;5.378;2024-03-08T12:23:38;10.40;99.90
7958;DHT22;4024;52.172;5.378;2024-03-08T12:26:15;10.50;99.90
7958;DHT22;4024;52.172;5.378;2024-03-08T12:28:42;10.50;99.90
7958;DHT22;4024;52.172;5.378;2024-03-08T12:31:13;10.60;99.90
7958;DHT22;4024;52.172;5.378;2024-03-08T12:33:55;10.60;99.90
7958;DHT22;4024;52.172;5.378;2024-03-08T12:36:25;10.70;99.90
7958;DHT22;4024;52.172;5.378;2024-03-08T12:38:51;10.70;99.90
7958;DHT22;4024;52.172;5.378;2024-03-08T12:41:20;10.80;99.90
7958;DHT22;4024;52.172;5.378;2024-03-08T12:43:47;10.80;99.90
7958;DHT22;4024;52.172;5.378;2024-03-08T12:46:15;10.80;99.90
7958;DHT22;4024;52.172;5.378;2024-03-08T12:48:40;10.90;99.90
7958;DHT22;4024;52.172;5.378;2024-03-08T12:51:07;11.00;99.90
7958;DHT22;4024;52.172;5.378;2024-03-08T12:53:33;11.00;99.90
7958;DHT22;4024;52.172;5.378;2024-03-08T12:55:58;11.00;99.90
7958;DHT22;4024;52.172;5.378;2024-03-08T12:58:24;11.10;99.90
7958;DHT22;4024;52.172;5.378;2024-03-08T13:00:51;11.10;99.90
7958;DHT22;4024;52.172;5.378;2024-03-08T13:03:17;11.20;99.90
7958;DHT22;4024;52.172;5.378;2024-03-08T13:05:42;11.20;99.90
7958;DHT22;4024;52.172;5.378;2024-03-08T13:08:08;11.20;99.90
7958;DHT22;4024;52.172;5.378;2024-03-08T13:10:43;11.20;99.90
7958;DHT22;4024;52.172;5.378;2024-03-08T13:13:12;11.20;99.90
7958;DHT22;4024;52.172;5.378;2024-03-08T13:15:40;11.30;99.90
7958;DHT22;4024;52.172;5.378;2024-03-08T13:18:06;11.30;99.90
7958;DHT22;4024;52.172;5.378;2024-03-08T13:20:34;11.30;99.90
7958;DHT22;4024;52.172;5.378;2024-03-08T13:23:03;11.40;99.90
7958;DHT22;4024;52.172;5.378;2024-03-08T13:25:30;11.40;99.90
7958;DHT22;4024;52.172;5.378;2024-03-08T13:27:57;11.40;99.90
7958;DHT22;4024;52.172;5.378;2024-03-08T13:30:24;11.40;99.90
7958;DHT22;4024;52.172;5.378;2024-03-08T13:32:52;11.50;99.90
7958;DHT22;4024;52.172;5.378;2024-03-08T13:35:18;11.40;99.90
7958;DHT22;4024;52.172;5.378;2024-03-08T13:37:50;11.50;99.90
7958;DHT22;4024;52.172;5.378;2024-03-08T13:40:16;11.50;99.90
7958;DHT22;4024;52.172;5.378;2024-03-08T13:42:46;11.50;99.90
7958;DHT22;4024;52.172;5.378;2024-03-08T13:45:12;11.50;99.90
7958;DHT22;4024;52.172;5.378;2024-03-08T13:47:41;11.50;99.90
7958;DHT22;4024;52.172;5.378;2024-03-08T13:50:08;11.60;99.90
7958;DHT22;4024;52.172;5.378;2024-03-08T13:52:37;11.60;99.90
7958;DHT22;4024;52.172;5.378;2024-03-08T13:55:04;11.60;99.90
7958;DHT22;4024;52.172;5.378;2024-03-08T13:57:31;11.60;99.90
7958;DHT22;4024;52.172;5.378;2024-03-08T13:59:57;11.60;99.90
7958;DHT22;4024;52.172;5.378;2024-03-08T14:02:23;11.70;99.90
7958;DHT22;4024;52.172;5.378;2024-03-08T14:04:53;11.70;99.90
7958;DHT22;4024;52.172;5.378;2024-03-08T14:07:20;11.70;99.90
7958;DHT22;4024;52.172;5.378;2024-03-08T14:09:46;11.70;99.90
7958;DHT22;4024;52.172;5.378;2024-03-08T14:12:11;11.70;99.90
7958;DHT22;4024;52.172;5.378;2024-03-08T14:14:37;11.80;99.90
7958;DHT22;4024;52.172;5.378;2024-03-08T14:17:03;11.90;99.90
7958;DHT22;4024;52.172;5.378;2024-03-08T14:19:29;11.80;99.90
7958;DHT22;4024;52.172;5.378;2024-03-08T14:21:59;11.80;99.90
7958;DHT22;4024;52.172;5.378;2024-03-08T14:24:25;11.80;99.90
7958;DHT22;4024;52.172;5.378;2024-03-08T14:26:51;11.90;99.90
7958;DHT22;4024;52.172;5.378;2024-03-08T14:29:17;11.80;99.90
7958;DHT22;4024;52.172;5.378;2024-03-08T14:31:44;11.90;99.90
7958;DHT22;4024;52.172;5.378;2024-03-08T14:34:10;11.80;99.90
7958;DHT22;4024;52.172;5.378;2024-03-08T14:36:36;11.90;99.90
7958;DHT22;4024;52.172;5.378;2024-03-08T14:39:02;11.90;99.90
7958;DHT22;4024;52.172;5.378;2024-03-08T14:41:27;11.90;99.90
7958;DHT22;4024;52.172;5.378;2024-03-08T14:43:53;11.90;99.90
7958;DHT22;4024;52.172;5.378;2024-03-08T14:46:19;11.90;99.90
7958;DHT22;4024;52.172;5.378;2024-03-08T14:48:49;11.90;99.90
7958;DHT22;4024;52.172;5.378;2024-03-08T14:51:20;11.90;99.90
7958;DHT22;4024;52.172;5.378;2024-03-08T14:53:52;11.90;99.90
7958;DHT22;4024;52.172;5.378;2024-03-08T14:56:18;12.00;99.90
7958;DHT22;4024;52.172;5.378;2024-03-08T14:58:44;11.90;99.90
7958;DHT22;4024;52.172;5.378;2024-03-08T15:01:15;12.00;99.90
7958;DHT22;4024;52.172;5.378;2024-03-08T15:03:41;11.90;99.90
7958;DHT22;4024;52.172;5.378;2024-03-08T15:06:08;11.90;99.90
7958;DHT22;4024;52.172;5.378;2024-03-08T15:08:38;11.90;99.90
7958;DHT22;4024;52.172;5.378;2024-03-08T15:11:05;12.00;99.90
7958;DHT22;4024;52.172;5.378;2024-03-08T15:13:33;11.90;99.90
7958;DHT22;4024;52.172;5.378;2024-03-08T15:16:08;11.90;99.90
7958;DHT22;4024;52.172;5.378;2024-03-08T15:18:34;11.90;99.90
7958;DHT22;4024;52.172;5.378;2024-03-08T15:21:02;11.90;99.90
7958;DHT22;4024;52.172;5.378;2024-03-08T15:23:49;11.90;99.90
7958;DHT22;4024;52.172;5.378;2024-03-08T15:26:17;11.90;99.90
7958;DHT22;4024;52.172;5.378;2024-03-08T15:28:43;12.00;99.90
7958;DHT22;4024;52.172;5.378;2024-03-08T15:31:11;11.90;99.90
7958;DHT22;4024;52.172;5.378;2024-03-08T15:33:39;11.90;99.90
7958;DHT22;4024;52.172;5.378;2024-03-08T15:36:10;11.90;99.90
7958;DHT22;4024;52.172;5.378;2024-03-08T15:38:37;12.00;99.90
7958;DHT22;4024;52.172;5.378;2024-03-08T15:41:04;11.90;99.90
7958;DHT22;4024;52.172;5.378;2024-03-08T15:43:38;11.90;99.90
7958;DHT22;4024;52.172;5.378;2024-03-08T15:46:05;11.90;99.90
7958;DHT22;4024;52.172;5.378;2024-03-08T15:48:32;11.90;99.90
7958;DHT22;4024;52.172;5.378;2024-03-08T15:50:59;11.80;99.90
7958;DHT22;4024;52.172;5.378;2024-03-08T15:53:33;11.80;99.90
7958;DHT22;4024;52.172;5.378;2024-03-08T15:56:00;11.80;99.90
7958;DHT22;4024;52.172;5.378;2024-03-08T15:58:28;11.80;99.90
7958;DHT22;4024;52.172;5.378;2024-03-08T16:00:56;11.80;99.90
7958;DHT22;4024;52.172;5.378;2024-03-08T16:03:22;11.80;99.90
7958;DHT22;4024;52.172;5.378;2024-03-08T16:05:48;11.80;99.90
7958;DHT22;4024;52.172;5.378;2024-03-08T16:08:15;11.70;99.90
7958;DHT22;4024;52.172;5.378;2024-03-08T16:10:53;11.70;99.90
7958;DHT22;4024;52.172;5.378;2024-03-08T16:13:26;11.70;99.90
7958;DHT22;4024;52.172;5.378;2024-03-08T16:15:53;11.70;99.90
7958;DHT22;4024;52.172;5.378;2024-03-08T16:18:23;11.70;99.90
7958;DHT22;4024;52.172;5.378;2024-03-08T16:20:51;11.70;99.90
7958;DHT22;4024;52.172;5.378;2024-03-08T16:23:18;11.60;99.90
7958;DHT22;4024;52.172;5.378;2024-03-08T16:25:44;11.60;99.90
7958;DHT22;4024;52.172;5.378;2024-03-08T16:28:10;11.60;99.90